createdAt,value
2022-08-18T00:00:34.321Z,82.40
2022-08-18T00:03:53.304Z,83.10
2022-08-18T00:05:52.941Z,83.30
2022-08-18T00:08:19.963Z,83.60
2022-08-18T00:10:46.977Z,84.40
2022-08-18T00:13:14.222Z,85.00
2022-08-18T00:15:48.732Z,84.50
2022-08-18T00:18:16.568Z,83.00
2022-08-18T00:20:43.673Z,82.00
2022-08-18T00:33:37.445Z,86.70
2022-08-18T00:36:04.513Z,86.90
2022-08-18T00:38:31.418Z,86.00
2022-08-18T00:40:58.714Z,86.00
2022-08-18T00:43:54.669Z,86.30
2022-08-18T00:46:25.280Z,85.70
2022-08-18T00:53:29.846Z,84.80
2022-08-18T00:56:01.791Z,86.80
2022-08-18T00:58:35.806Z,88.00
2022-08-18T01:01:06.476Z,88.60
2022-08-18T01:03:39.624Z,89.20
2022-08-18T01:06:15.349Z,90.00
2022-08-18T01:08:43.068Z,89.90
2022-08-18T01:11:10.528Z,89.40
2022-08-18T01:13:41.345Z,89.80
2022-08-18T01:16:28.019Z,89.60
2022-08-18T01:19:13.454Z,90.00
2022-08-18T01:21:51.914Z,90.30
2022-08-18T01:24:49.653Z,90.40
2022-08-18T01:27:18.609Z,90.60
2022-08-18T01:29:50.165Z,90.70
2022-08-18T01:32:22.808Z,90.70
2022-08-18T01:34:52.101Z,90.70
2022-08-18T01:37:22.227Z,90.60
2022-08-18T01:41:12.900Z,90.10
2022-08-18T01:42:38.666Z,87.30
2022-08-18T01:45:08.090Z,86.20
2022-08-18T01:47:48.073Z,86.70
2022-08-18T01:55:19.020Z,86.50
2022-08-18T01:57:46.440Z,87.40
2022-08-18T02:00:17.353Z,86.80
2022-08-18T02:02:44.334Z,87.70
2022-08-18T02:05:16.721Z,88.40
2022-08-18T02:07:44.596Z,88.80
2022-08-18T02:10:16.460Z,89.00
2022-08-18T02:12:44.189Z,89.20
2022-08-18T02:15:12.408Z,89.60
2022-08-18T02:17:42.313Z,89.90
2022-08-18T02:20:12.629Z,89.30
2022-08-18T02:22:40.584Z,89.80
2022-08-18T02:25:08.685Z,90.10
2022-08-18T02:27:35.883Z,90.00
2022-08-18T02:30:06.832Z,90.20
2022-08-18T02:32:33.900Z,90.30
2022-08-18T02:35:01.123Z,90.30
2022-08-18T02:37:28.231Z,90.40
2022-08-18T02:39:55.070Z,90.50
2022-08-18T02:42:22.074Z,90.50
2022-08-18T02:44:49.158Z,90.50
2022-08-18T02:47:20.486Z,90.50
2022-08-18T02:54:23.276Z,87.60
2022-08-18T02:56:51.734Z,84.50
2022-08-18T02:59:24.338Z,84.50
2022-08-18T03:01:53.961Z,86.30
2022-08-18T03:04:29.683Z,87.10
2022-08-18T03:07:01.507Z,83.30
2022-08-18T03:09:29.782Z,81.60
2022-08-18T03:11:57.071Z,80.90
2022-08-18T03:14:24.366Z,81.20
2022-08-18T03:16:54.494Z,80.90
2022-08-18T03:19:28.468Z,81.70
2022-08-18T03:21:59.374Z,82.40
2022-08-18T03:24:30.580Z,83.80
2022-08-18T03:26:57.817Z,84.30
2022-08-18T03:29:29.540Z,85.30
2022-08-18T03:31:59.464Z,86.50
2022-08-18T03:34:26.348Z,87.20
2022-08-18T03:36:53.646Z,86.40
2022-08-18T03:39:23.774Z,86.00
2022-08-18T03:41:58.023Z,85.30
2022-08-18T03:44:28.152Z,86.20
2022-08-18T03:46:55.166Z,86.90
2022-08-18T03:54:25.644Z,87.40
2022-08-18T03:56:54.349Z,89.10
2022-08-18T03:59:27.344Z,90.40
2022-08-18T04:01:55.427Z,90.20
2022-08-18T04:04:27.906Z,89.30
2022-08-18T04:07:05.826Z,89.20
2022-08-18T04:09:34.457Z,90.10
2022-08-18T04:12:16.731Z,90.10
2022-08-18T04:14:48.192Z,90.00
2022-08-18T04:17:23.725Z,89.90
2022-08-18T04:19:55.689Z,90.50
2022-08-18T04:22:23.808Z,91.30
2022-08-18T04:24:51.308Z,91.70
2022-08-18T04:27:19.833Z,92.30
2022-08-18T04:29:47.335Z,92.40
2022-08-18T04:32:15.244Z,92.80
2022-08-18T04:34:42.240Z,93.10
2022-08-18T04:37:09.877Z,93.10
2022-08-18T04:39:37.649Z,93.20
2022-08-18T04:42:06.023Z,93.30
2022-08-18T04:44:33.365Z,93.60
2022-08-18T04:47:01.318Z,94.00
2022-08-18T04:54:31.906Z,93.90
2022-08-18T04:56:58.907Z,94.00
2022-08-18T04:59:25.946Z,94.30
2022-08-18T05:01:52.910Z,94.30
2022-08-18T05:04:19.958Z,94.60
2022-08-18T05:06:47.019Z,94.70
2022-08-18T05:09:16.617Z,94.50
2022-08-18T05:11:44.664Z,94.20
2022-08-18T05:14:11.794Z,94.10
2022-08-18T05:16:48.103Z,94.50
2022-08-18T05:19:23.137Z,94.50
2022-08-18T05:21:52.161Z,94.70
2022-08-18T05:24:21.506Z,95.00
2022-08-18T05:26:49.184Z,95.00
2022-08-18T05:29:18.458Z,95.00
2022-08-18T05:31:47.435Z,95.10
2022-08-18T05:34:14.361Z,94.80
2022-08-18T05:36:53.171Z,94.70
2022-08-18T05:39:25.316Z,94.50
2022-08-18T05:42:07.808Z,94.40
2022-08-18T05:44:40.862Z,94.40
2022-08-18T05:47:11.732Z,94.30
2022-08-18T05:49:39.328Z,94.30
2022-08-18T05:53:02.481Z,94.60
2022-08-18T05:56:20.902Z,94.30
2022-08-18T05:58:51.730Z,95.20
2022-08-18T06:01:24.121Z,94.50
2022-08-18T06:04:01.179Z,95.40
2022-08-18T06:06:30.786Z,95.30
2022-08-18T06:09:10.718Z,95.30
2022-08-18T06:11:37.750Z,96.50
2022-08-18T06:14:05.010Z,95.80
2022-08-18T06:17:01.177Z,96.00
2022-08-18T06:19:49.526Z,96.20
2022-08-18T06:22:29.806Z,96.40
2022-08-18T06:25:08.972Z,96.40
2022-08-18T06:28:06.040Z,96.40
2022-08-18T06:30:42.049Z,96.30
2022-08-18T06:33:32.252Z,97.20
2022-08-18T06:36:08.787Z,98.30
2022-08-18T06:38:46.062Z,98.30
2022-08-18T06:41:40.635Z,99.10
2022-08-18T06:44:10.251Z,98.70
2022-08-18T06:46:56.148Z,98.80
2022-08-18T06:49:46.700Z,98.90
2022-08-18T06:57:10.228Z,98.20
2022-08-18T06:59:38.402Z,97.60
2022-08-18T07:02:22.174Z,98.10
2022-08-18T07:05:08.542Z,97.40
2022-08-18T07:07:41.224Z,97.80
2022-08-18T07:10:29.209Z,96.60
2022-08-18T07:13:19.897Z,96.80
2022-08-18T07:15:48.502Z,97.20
2022-08-18T07:18:28.918Z,96.40
2022-08-18T07:20:59.335Z,96.20
2022-08-18T07:23:31.642Z,95.90
2022-08-18T07:26:15.525Z,96.10
2022-08-18T07:28:51.547Z,95.80
2022-08-18T07:31:27.300Z,95.50
2022-08-18T07:34:09.663Z,95.10
2022-08-18T07:36:49.816Z,94.50
2022-08-18T07:39:44.115Z,94.30
2022-08-18T07:42:37.154Z,94.30
2022-08-18T07:45:30.450Z,94.10
2022-08-18T07:48:36.913Z,94.00
2022-08-18T07:56:05.776Z,93.40
2022-08-18T07:58:38.077Z,94.50
2022-08-18T08:01:24.542Z,94.90
2022-08-18T08:04:25.813Z,95.10
2022-08-18T08:07:22.938Z,94.90
2022-08-18T08:10:09.675Z,94.40
2022-08-18T08:12:51.224Z,95.00
2022-08-18T08:15:36.963Z,94.30
2022-08-18T08:18:32.014Z,93.90
2022-08-18T08:21:08.074Z,93.60
2022-08-18T08:24:09.229Z,94.00
2022-08-18T08:26:53.253Z,93.90
2022-08-18T08:29:29.329Z,94.30
2022-08-18T08:32:03.044Z,94.00
2022-08-18T08:34:49.357Z,94.10
2022-08-18T08:37:32.349Z,93.60
2022-08-18T08:40:28.369Z,93.30
2022-08-18T08:43:03.289Z,92.70
2022-08-18T08:45:34.077Z,91.60
2022-08-18T08:48:27.545Z,91.10
2022-08-18T08:51:00.229Z,90.70
2022-08-18T08:54:23.878Z,90.00
2022-08-18T08:56:53.691Z,89.40
2022-08-18T08:59:22.900Z,88.80
2022-08-18T09:02:44.747Z,88.10
2022-08-18T09:05:25.172Z,87.90
2022-08-18T09:08:07.397Z,87.00
2022-08-18T09:10:59.528Z,86.50
2022-08-18T09:13:45.269Z,86.50
2022-08-18T09:16:52.833Z,87.00
2022-08-18T09:19:22.520Z,87.40
2022-08-18T09:22:18.872Z,86.50
2022-08-18T09:24:52.305Z,86.30
2022-08-18T09:28:09.364Z,86.10
2022-08-18T09:30:47.498Z,86.50
2022-08-18T09:33:49.926Z,86.70
2022-08-18T09:36:27.639Z,86.00
2022-08-18T09:39:27.154Z,85.90
2022-08-18T09:42:03.469Z,86.00
2022-08-18T09:44:48.811Z,86.00
2022-08-18T09:50:30.239Z,86.40
2022-08-18T09:53:53.884Z,86.10
2022-08-18T09:56:54.261Z,86.30
2022-08-18T09:59:35.102Z,86.40
2022-08-18T10:02:33.846Z,85.20
2022-08-18T10:05:16.117Z,85.40
2022-08-18T10:07:44.943Z,85.40
2022-08-18T10:11:02.430Z,85.90
2022-08-18T10:13:49.720Z,85.90
2022-08-18T10:16:22.482Z,86.80
2022-08-18T10:19:08.184Z,86.50
2022-08-18T10:21:58.320Z,86.80
2022-08-18T10:24:39.734Z,87.40
2022-08-18T10:27:10.903Z,87.50
2022-08-18T10:29:49.611Z,87.60
2022-08-18T10:32:17.961Z,87.30
2022-08-18T10:34:56.788Z,87.60
2022-08-18T10:37:39.527Z,87.20
2022-08-18T10:40:09.492Z,86.50
2022-08-18T10:46:24.928Z,86.50
2022-08-18T10:49:15.028Z,85.80
2022-08-18T10:52:08.384Z,85.00
2022-08-18T10:55:48.407Z,85.90
2022-08-18T10:58:34.269Z,85.30
2022-08-18T11:01:19.309Z,85.50
2022-08-18T11:04:22.615Z,84.60
2022-08-18T11:07:14.755Z,84.50
2022-08-18T11:09:57.334Z,83.30
2022-08-18T11:13:07.777Z,82.40
2022-08-18T11:15:38.107Z,81.80
2022-08-18T11:18:19.829Z,81.40
2022-08-18T11:20:47.651Z,81.50
2022-08-18T11:23:17.355Z,81.20
2022-08-18T11:25:45.734Z,80.30
2022-08-18T11:28:30.697Z,80.10
2022-08-18T11:31:00.241Z,79.80
2022-08-18T11:33:28.476Z,77.60
2022-08-18T11:35:58.520Z,76.70
2022-08-18T11:38:29.660Z,75.90
2022-08-18T11:41:18.956Z,74.10
2022-08-18T11:43:48.331Z,72.20
2022-08-18T11:46:43.698Z,71.60
2022-08-18T11:49:28.577Z,70.20
2022-08-18T11:56:53.474Z,67.80
2022-08-18T11:59:52.793Z,67.50
2022-08-18T12:03:08.887Z,67.00
2022-08-18T12:05:56.000Z,67.00
2022-08-18T12:09:36.945Z,65.70
2022-08-18T12:12:19.068Z,65.60
2022-08-18T12:15:44.382Z,64.60
2022-08-18T12:18:28.085Z,64.30
2022-08-18T12:21:52.414Z,64.00
2022-08-18T12:24:34.570Z,63.30
2022-08-18T12:38:03.529Z,61.10
2022-08-18T12:40:40.264Z,62.20
2022-08-18T12:43:07.502Z,61.40
2022-08-18T12:45:34.536Z,61.70
2022-08-18T12:48:04.862Z,63.10
2022-08-18T12:50:43.158Z,63.60
2022-08-18T12:53:17.301Z,63.50
2022-08-18T12:55:45.909Z,62.70
2022-08-18T12:58:13.101Z,62.60
2022-08-18T13:00:41.164Z,63.50
2022-08-18T13:03:08.781Z,63.00
2022-08-18T13:05:37.331Z,63.00
2022-08-18T13:08:06.072Z,62.90
2022-08-18T13:10:44.999Z,63.20
2022-08-18T13:13:14.222Z,62.90
2022-08-18T13:15:44.393Z,62.30
2022-08-18T13:18:28.988Z,62.00
2022-08-18T13:20:58.349Z,62.20
2022-08-18T13:23:27.545Z,63.00
2022-08-18T13:25:59.474Z,62.30
2022-08-18T13:28:33.372Z,62.70
2022-08-18T13:31:05.513Z,62.80
2022-08-18T13:38:27.079Z,61.80
2022-08-18T13:40:57.735Z,61.90
2022-08-18T13:43:43.247Z,61.80
2022-08-18T13:46:14.374Z,61.60
2022-08-18T13:48:43.456Z,61.50
2022-08-18T13:51:19.268Z,61.30
2022-08-18T13:53:57.574Z,62.50
2022-08-18T13:56:31.440Z,62.10
2022-08-18T13:58:58.867Z,61.80
2022-08-18T14:01:44.662Z,61.40
2022-08-18T14:04:15.029Z,61.00
2022-08-18T14:06:56.460Z,61.10
2022-08-18T14:09:27.814Z,60.70
2022-08-18T14:12:21.423Z,60.70
2022-08-18T14:14:54.122Z,60.20
2022-08-18T14:17:23.702Z,60.40
2022-08-18T14:20:21.118Z,60.30
2022-08-18T14:23:13.472Z,60.30
2022-08-18T14:25:59.857Z,60.40
2022-08-18T14:28:28.368Z,60.20
2022-08-18T14:30:57.434Z,60.20
2022-08-18T14:33:34.568Z,60.00
2022-08-18T14:40:26.710Z,58.60
2022-08-18T14:42:55.594Z,57.80
2022-08-18T14:45:31.376Z,57.50
2022-08-18T14:48:06.765Z,57.80
2022-08-18T14:50:35.891Z,57.40
2022-08-18T14:53:05.031Z,57.80
2022-08-18T14:55:32.296Z,57.80
2022-08-18T14:58:01.419Z,57.90
2022-08-18T15:00:29.045Z,57.70
2022-08-18T15:02:59.794Z,56.90
2022-08-18T15:05:32.239Z,57.30
2022-08-18T15:08:03.778Z,57.30
2022-08-18T15:10:31.113Z,57.30
2022-08-18T15:13:00.552Z,57.10
2022-08-18T15:15:28.546Z,57.70
2022-08-18T15:18:15.666Z,57.10
2022-08-18T15:21:10.293Z,57.00
2022-08-18T15:24:05.319Z,57.50
2022-08-18T15:26:51.468Z,57.00
2022-08-18T15:29:19.242Z,56.90
2022-08-18T15:31:50.852Z,57.30
2022-08-18T15:39:08.019Z,57.50
2022-08-18T15:41:43.908Z,58.80
2022-08-18T15:44:13.609Z,58.10
2022-08-18T15:46:51.230Z,58.30
2022-08-18T15:49:21.811Z,58.80
2022-08-18T15:51:50.700Z,59.30
2022-08-18T15:54:19.787Z,60.10
2022-08-18T15:56:57.664Z,60.10
2022-08-18T15:59:32.986Z,60.70
2022-08-18T16:02:02.149Z,60.70
2022-08-18T16:04:29.020Z,61.00
2022-08-18T16:06:56.100Z,61.20
2022-08-18T16:09:22.972Z,62.60
2022-08-18T16:11:49.993Z,63.20
2022-08-18T16:14:16.985Z,63.00
2022-08-18T16:16:43.775Z,63.70
2022-08-18T16:19:10.766Z,62.70
2022-08-18T16:21:40.529Z,63.40
2022-08-18T16:24:08.084Z,63.80
2022-08-18T16:26:35.477Z,63.90
2022-08-18T16:29:02.333Z,64.00
2022-08-18T16:31:29.555Z,64.10
2022-08-18T16:33:57.889Z,63.80
2022-08-18T16:40:38.158Z,64.00
2022-08-18T16:43:06.815Z,64.30
2022-08-18T16:45:36.710Z,64.40
2022-08-18T16:48:04.198Z,64.50
2022-08-18T16:50:31.916Z,64.70
2022-08-18T16:52:58.694Z,64.90
2022-08-18T16:55:25.748Z,64.70
2022-08-18T16:58:15.273Z,64.60
2022-08-18T17:01:01.797Z,65.10
2022-08-18T17:03:47.333Z,64.90
2022-08-18T17:06:17.455Z,65.10
2022-08-18T17:08:45.121Z,65.50
2022-08-18T17:11:14.779Z,65.60
2022-08-18T17:13:43.489Z,65.50
2022-08-18T17:16:11.567Z,65.70
2022-08-18T17:18:38.867Z,65.70
2022-08-18T17:21:09.582Z,65.70
2022-08-18T17:23:38.758Z,65.70
2022-08-18T17:26:09.236Z,65.50
2022-08-18T17:28:45.707Z,65.50
2022-08-18T17:31:20.613Z,65.90
2022-08-18T17:33:47.496Z,66.00
2022-08-18T17:40:39.078Z,66.20
2022-08-18T17:43:16.059Z,66.50
2022-08-18T17:45:45.601Z,66.50
2022-08-18T17:48:22.515Z,66.90
2022-08-18T17:51:11.450Z,67.10
2022-08-18T17:53:38.978Z,67.00
2022-08-18T17:56:35.609Z,67.40
2022-08-18T17:59:42.944Z,67.50
2022-08-18T18:02:08.279Z,67.80
2022-08-18T18:04:47.482Z,67.90
2022-08-18T18:07:40.480Z,68.00
2022-08-18T18:10:23.567Z,68.20
2022-08-18T18:13:08.963Z,68.00
2022-08-18T18:15:41.046Z,68.50
2022-08-18T18:18:24.914Z,68.40
2022-08-18T18:21:05.675Z,68.70
2022-08-18T18:23:39.366Z,68.30
2022-08-18T18:26:28.403Z,68.30
2022-08-18T18:29:29.257Z,69.00
2022-08-18T18:32:07.401Z,68.80
2022-08-18T18:34:43.815Z,68.90
2022-08-18T18:41:31.393Z,69.30
2022-08-18T18:44:11.641Z,69.50
2022-08-18T18:46:53.475Z,69.30
2022-08-18T18:49:50.615Z,69.40
2022-08-18T18:52:30.450Z,69.50
2022-08-18T18:55:09.457Z,69.90
2022-08-18T18:57:59.619Z,69.90
2022-08-18T19:00:35.298Z,70.20
2022-08-18T19:03:16.110Z,70.20
2022-08-18T19:06:29.464Z,70.20
2022-08-18T19:09:14.064Z,70.20
2022-08-18T19:11:41.119Z,70.40
2022-08-18T19:14:20.075Z,70.50
2022-08-18T19:17:01.850Z,71.00
2022-08-18T19:19:45.401Z,70.80
2022-08-18T19:22:27.712Z,71.00
2022-08-18T19:25:14.719Z,71.20
2022-08-18T19:27:53.623Z,70.90
2022-08-18T19:30:22.165Z,71.20
2022-08-18T19:32:58.516Z,71.40
2022-08-18T19:35:42.025Z,71.80
2022-08-18T19:43:12.169Z,72.30
2022-08-18T19:45:56.240Z,72.40
2022-08-18T19:48:51.484Z,72.60
2022-08-18T19:51:33.635Z,72.70
2022-08-18T19:54:22.201Z,72.80
2022-08-18T19:56:51.826Z,72.90
2022-08-18T19:59:38.692Z,72.90
2022-08-18T20:02:19.815Z,73.20
2022-08-18T20:04:46.641Z,73.40
2022-08-18T20:07:37.964Z,73.50
2022-08-18T20:10:29.676Z,73.50
2022-08-18T20:13:17.540Z,73.70
2022-08-18T20:16:02.535Z,74.30
2022-08-18T20:18:44.684Z,73.90
2022-08-18T20:21:17.270Z,74.00
2022-08-18T20:23:59.174Z,74.40
2022-08-18T20:26:37.677Z,74.50
2022-08-18T20:29:13.270Z,74.70
2022-08-18T20:31:49.303Z,74.70
2022-08-18T20:34:17.948Z,74.80
2022-08-18T20:40:59.976Z,75.00
2022-08-18T20:43:36.104Z,75.50
2022-08-18T20:46:15.510Z,75.80
2022-08-18T20:49:06.333Z,76.20
2022-08-18T20:51:42.944Z,76.50
2022-08-18T20:54:38.697Z,76.80
2022-08-18T20:57:19.132Z,77.00
2022-08-18T21:00:02.149Z,77.50
2022-08-18T21:02:35.423Z,77.80
2022-08-18T21:05:02.365Z,77.90
2022-08-18T21:07:37.866Z,78.10
2022-08-18T21:10:34.082Z,78.60
2022-08-18T21:13:04.197Z,78.80
2022-08-18T21:15:37.114Z,79.00
2022-08-18T21:18:20.439Z,78.90
2022-08-18T21:20:48.902Z,79.30
2022-08-18T21:23:41.411Z,79.40
2022-08-18T21:26:16.092Z,79.80
2022-08-18T21:28:46.058Z,80.20
2022-08-18T21:31:41.560Z,80.40
2022-08-18T21:34:14.066Z,81.20
2022-08-18T21:36:54.002Z,81.90
2022-08-18T21:44:24.226Z,82.50
2022-08-18T21:47:02.486Z,83.10
2022-08-18T21:49:29.377Z,83.80
2022-08-18T21:51:57.247Z,84.50
2022-08-18T21:54:30.540Z,85.10
2022-08-18T21:57:20.935Z,85.40
2022-08-18T22:00:10.816Z,86.20
2022-08-18T22:02:37.788Z,86.70
2022-08-18T22:05:05.205Z,87.20
2022-08-18T22:07:35.021Z,87.30
2022-08-18T22:10:39.457Z,87.70
2022-08-18T22:13:34.068Z,88.30
2022-08-18T22:16:31.784Z,88.70
2022-08-18T22:19:06.528Z,89.30
2022-08-18T22:21:41.154Z,89.40
2022-08-18T22:24:21.503Z,89.60
2022-08-18T22:27:12.250Z,90.20
2022-08-18T22:30:04.723Z,90.40
2022-08-18T22:32:35.437Z,90.60
2022-08-18T22:35:02.887Z,90.80
2022-08-18T22:37:32.618Z,90.90
2022-08-18T22:45:00.129Z,91.20
2022-08-18T22:47:29.824Z,91.30
2022-08-18T22:50:01.980Z,91.40
2022-08-18T22:52:34.488Z,91.40
2022-08-18T22:55:07.977Z,91.30
2022-08-18T22:57:37.494Z,91.30
2022-08-18T23:00:10.323Z,91.30
2022-08-18T23:02:37.502Z,91.50
2022-08-18T23:05:05.187Z,91.40
2022-08-18T23:07:33.791Z,91.30
2022-08-18T23:10:00.783Z,91.30
2022-08-18T23:12:27.643Z,91.20
2022-08-18T23:14:54.913Z,91.30
2022-08-18T23:17:22.028Z,91.40
2022-08-18T23:19:49.185Z,91.40
2022-08-18T23:22:19.584Z,91.40
2022-08-18T23:24:48.713Z,91.40
2022-08-18T23:27:15.852Z,91.50
2022-08-18T23:29:42.783Z,91.60
2022-08-18T23:32:09.805Z,91.70
2022-08-18T23:34:36.798Z,91.80
2022-08-18T23:37:04.940Z,92.00
2022-08-18T23:43:48.116Z,92.00
2022-08-18T23:46:19.007Z,92.00
2022-08-18T23:48:50.239Z,92.20
2022-08-18T23:51:39.175Z,92.40
2022-08-18T23:54:10.547Z,92.50
2022-08-18T23:56:37.895Z,92.40
